createdAt,value
2018-08-23T00:01:29.652Z,28.77
2018-08-23T00:04:03.254Z,29.90
2018-08-23T00:06:31.979Z,28.03
2018-08-23T00:09:00.539Z,29.57
2018-08-23T00:11:31.754Z,29.00
2018-08-23T00:14:00.301Z,27.80
2018-08-23T00:16:35.295Z,30.03
2018-08-23T00:19:04.780Z,29.47
2018-08-23T00:21:37.916Z,28.00
2018-08-23T00:24:09.805Z,30.37
2018-08-23T00:26:39.809Z,29.93
2018-08-23T00:29:14.761Z,32.20
2018-08-23T00:31:43.397Z,30.73
2018-08-23T00:34:12.163Z,30.43
2018-08-23T00:36:40.754Z,32.97
2018-08-23T00:39:10.232Z,30.70
2018-08-23T00:41:38.980Z,32.03
2018-08-23T00:44:07.577Z,26.17
2018-08-23T00:46:36.466Z,29.93
2018-08-23T00:49:05.128Z,30.50
2018-08-23T00:51:38.066Z,29.30
2018-08-23T00:54:06.805Z,31.93
2018-08-23T00:56:35.440Z,28.47
2018-08-23T00:59:04.529Z,33.13
2018-08-23T01:01:33.728Z,28.50
2018-08-23T01:04:02.265Z,31.47
2018-08-23T01:06:40.124Z,29.37
2018-08-23T01:09:10.753Z,36.63
2018-08-23T01:11:40.270Z,33.77
2018-08-23T01:14:09.427Z,31.17
2018-08-23T01:16:38.083Z,30.43
2018-08-23T01:19:12.020Z,33.47
2018-08-23T01:22:00.483Z,32.50
2018-08-23T01:24:30.859Z,31.53
2018-08-23T01:26:59.462Z,32.90
2018-08-23T01:29:29.218Z,31.17
2018-08-23T01:32:16.825Z,30.83
2018-08-23T01:34:45.453Z,36.27
2018-08-23T01:37:24.642Z,34.03
2018-08-23T01:39:53.268Z,41.40
2018-08-23T01:42:25.015Z,40.03
2018-08-23T01:44:53.638Z,39.27
2018-08-23T01:47:22.359Z,40.87
2018-08-23T01:49:51.009Z,38.17
2018-08-23T01:52:19.639Z,34.73
2018-08-23T01:54:48.198Z,35.27
2018-08-23T01:57:21.308Z,41.37
2018-08-23T01:59:49.897Z,39.87
2018-08-23T02:02:18.559Z,40.13
2018-08-23T02:04:48.160Z,38.57
2018-08-23T02:07:16.771Z,36.10
2018-08-23T02:09:45.303Z,40.77
2018-08-23T02:12:14.014Z,39.47
2018-08-23T02:14:45.805Z,39.60
2018-08-23T02:17:15.022Z,43.73
2018-08-23T02:19:48.153Z,38.83
2018-08-23T02:22:16.835Z,42.03
2018-08-23T02:24:49.116Z,44.87
2018-08-23T02:27:19.345Z,42.77
2018-08-23T02:29:49.546Z,44.37
2018-08-23T02:32:18.158Z,48.13
2018-08-23T02:34:47.871Z,46.53
2018-08-23T02:37:17.420Z,45.23
2018-08-23T02:39:47.705Z,44.60
2018-08-23T02:42:18.135Z,43.33
2018-08-23T02:44:47.766Z,38.57
2018-08-23T02:47:16.813Z,46.20
2018-08-23T02:49:45.415Z,45.30
2018-08-23T02:52:14.127Z,40.33
2018-08-23T02:54:42.815Z,43.93
2018-08-23T02:57:12.267Z,45.67
2018-08-23T02:59:40.872Z,43.83
2018-08-23T03:02:14.111Z,48.00
2018-08-23T03:04:42.798Z,46.33
2018-08-23T03:07:11.424Z,51.27
2018-08-23T03:09:41.112Z,50.93
2018-08-23T03:12:13.010Z,44.77
2018-08-23T03:14:42.034Z,47.40
2018-08-23T03:17:20.812Z,48.73
2018-08-23T03:20:18.525Z,44.50
2018-08-23T03:22:48.496Z,47.60
2018-08-23T03:25:18.512Z,50.53
2018-08-23T03:27:47.079Z,50.70
2018-08-23T03:30:16.880Z,51.47
2018-08-23T03:32:45.508Z,58.93
2018-08-23T03:35:14.079Z,54.83
2018-08-23T03:37:42.619Z,57.20
2018-08-23T03:40:12.631Z,57.13
2018-08-23T03:42:41.429Z,57.60
2018-08-23T03:45:15.703Z,58.90
2018-08-23T03:47:49.610Z,51.63
2018-08-23T03:50:18.411Z,57.00
2018-08-23T03:52:48.360Z,55.60
2018-08-23T03:55:20.006Z,56.60
2018-08-23T03:57:52.675Z,56.93
2018-08-23T04:00:27.040Z,56.20
2018-08-23T04:02:56.082Z,51.70
2018-08-23T04:05:24.674Z,59.70
2018-08-23T04:07:53.226Z,57.50
2018-08-23T04:10:21.887Z,55.10
2018-08-23T04:12:50.495Z,58.67
2018-08-23T04:15:27.978Z,56.63
2018-08-23T04:17:56.668Z,58.73
2018-08-23T04:20:25.378Z,61.93
2018-08-23T04:22:54.106Z,59.17
2018-08-23T04:25:22.791Z,62.67
2018-08-23T04:27:51.425Z,58.53
2018-08-23T04:30:20.277Z,53.80
2018-08-23T04:32:49.658Z,57.90
2018-08-23T04:35:23.528Z,55.73
2018-08-23T04:37:52.515Z,59.30
2018-08-23T04:40:21.234Z,53.30
2018-08-23T04:42:49.944Z,59.87
2018-08-23T04:45:26.708Z,59.67
2018-08-23T04:48:00.576Z,56.10
2018-08-23T04:50:29.335Z,59.53
2018-08-23T04:52:58.124Z,62.07
2018-08-23T04:55:27.317Z,56.47
2018-08-23T04:57:56.824Z,51.70
2018-08-23T05:00:25.982Z,58.73
2018-08-23T05:02:54.671Z,56.90
2018-08-23T05:05:23.254Z,58.80
2018-08-23T05:07:52.113Z,51.13
2018-08-23T05:10:20.684Z,56.53
2018-08-23T05:12:49.276Z,56.37
2018-08-23T05:15:17.883Z,56.10
2018-08-23T05:17:46.450Z,51.50
2018-08-23T05:20:15.225Z,54.67
2018-08-23T05:22:51.692Z,57.30
2018-08-23T05:25:22.389Z,59.33
2018-08-23T05:28:07.313Z,57.33
2018-08-23T05:30:35.872Z,61.63
2018-08-23T05:33:21.251Z,57.33
2018-08-23T05:35:49.910Z,61.27
2018-08-23T05:38:19.266Z,53.27
2018-08-23T05:40:53.999Z,54.50
2018-08-23T05:43:23.401Z,52.83
2018-08-23T05:45:54.207Z,60.07
2018-08-23T05:48:32.098Z,56.83
2018-08-23T05:51:06.666Z,53.43
2018-08-23T05:53:39.640Z,59.77
2018-08-23T05:56:08.764Z,62.63
2018-08-23T05:58:37.334Z,58.97
2018-08-23T06:01:06.055Z,51.67
2018-08-23T06:03:36.090Z,53.63
2018-08-23T06:06:04.719Z,54.53
2018-08-23T06:08:33.364Z,51.23
2018-08-23T06:11:06.109Z,51.83
2018-08-23T06:13:34.788Z,51.17
2018-08-23T06:16:03.408Z,53.73
2018-08-23T06:18:31.941Z,49.27
2018-08-23T06:21:00.730Z,57.20
2018-08-23T06:26:43.505Z,57.53
2018-08-23T06:29:15.904Z,48.50
2018-08-23T06:31:50.634Z,53.47
2018-08-23T06:34:19.257Z,51.80
2018-08-23T06:36:48.230Z,53.67
2018-08-23T06:39:16.836Z,47.47
2018-08-23T06:41:45.672Z,50.73
2018-08-23T06:44:14.311Z,50.60
2018-08-23T06:46:42.913Z,47.90
2018-08-23T06:49:11.496Z,47.13
2018-08-23T06:51:40.193Z,45.10
2018-08-23T06:54:08.815Z,49.90
2018-08-23T06:56:38.696Z,45.13
2018-08-23T06:59:07.699Z,47.10
2018-08-23T07:01:41.546Z,44.57
2018-08-23T07:04:14.068Z,44.67
2018-08-23T07:06:42.803Z,42.73
2018-08-23T07:09:15.604Z,43.03
2018-08-23T07:11:44.394Z,46.70
2018-08-23T07:14:16.245Z,50.50
2018-08-23T07:16:46.209Z,49.20
2018-08-23T07:19:33.335Z,49.50
2018-08-23T07:22:02.940Z,49.73
2018-08-23T07:24:42.215Z,42.30
2018-08-23T07:27:11.929Z,41.68
2018-08-23T07:29:40.588Z,40.83
2018-08-23T07:32:13.454Z,40.23
2018-08-23T07:34:51.523Z,38.15
2018-08-23T07:37:20.951Z,35.35
2018-08-23T07:39:56.970Z,39.25
2018-08-23T07:42:28.154Z,36.42
2018-08-23T07:44:57.248Z,40.10
2018-08-23T07:47:26.027Z,38.33
2018-08-23T07:49:56.704Z,37.08
2018-08-23T07:52:26.314Z,35.98
2018-08-23T07:54:54.879Z,31.10
2018-08-23T07:57:23.487Z,34.80
2018-08-23T07:59:59.355Z,32.17
2018-08-23T08:02:28.585Z,29.27
2018-08-23T08:04:57.808Z,27.73
2018-08-23T08:07:27.768Z,27.07
2018-08-23T08:09:57.084Z,26.15
2018-08-23T08:12:39.230Z,24.27
2018-08-23T08:15:11.780Z,25.57
2018-08-23T08:17:40.349Z,23.90
2018-08-23T08:20:10.410Z,22.27
2018-08-23T08:22:39.258Z,20.62
2018-08-23T08:25:13.030Z,22.32
2018-08-23T08:27:41.756Z,24.52
2018-08-23T08:30:12.174Z,21.33
2018-08-23T08:32:40.956Z,19.45
2018-08-23T08:35:23.827Z,18.55
2018-08-23T08:37:52.473Z,21.37
2018-08-23T08:40:23.582Z,22.82
2018-08-23T08:42:52.146Z,20.75
2018-08-23T08:45:20.732Z,20.15
2018-08-23T08:47:49.349Z,22.62
2018-08-23T08:50:18.006Z,21.17
2018-08-23T08:52:46.562Z,20.23
2018-08-23T08:55:16.964Z,22.07
2018-08-23T08:57:47.645Z,22.05
2018-08-23T09:00:16.067Z,20.30
2018-08-23T09:02:44.814Z,20.02
2018-08-23T09:05:13.391Z,23.32
2018-08-23T09:07:44.177Z,22.32
2018-08-23T09:10:12.761Z,20.48
2018-08-23T09:12:47.760Z,24.30
2018-08-23T09:15:16.280Z,21.35
2018-08-23T09:17:45.872Z,21.80
2018-08-23T09:20:17.792Z,25.40
2018-08-23T09:22:50.948Z,24.23
2018-08-23T09:25:26.128Z,24.27
2018-08-23T09:27:54.718Z,21.42
2018-08-23T09:30:27.559Z,25.08
2018-08-23T09:32:56.410Z,27.58
2018-08-23T09:35:29.539Z,25.97
2018-08-23T09:38:00.358Z,24.92
2018-08-23T09:40:30.013Z,24.67
2018-08-23T09:43:03.067Z,24.72
2018-08-23T09:45:32.856Z,22.07
2018-08-23T09:48:01.346Z,25.12
2018-08-23T09:50:29.962Z,24.90
2018-08-23T09:52:58.620Z,27.90
2018-08-23T09:55:30.951Z,25.35
2018-08-23T09:57:59.819Z,21.97
2018-08-23T10:00:33.941Z,25.08
2018-08-23T10:03:07.665Z,22.77
2018-08-23T10:05:47.981Z,25.12
2018-08-23T10:08:23.331Z,25.32
2018-08-23T10:10:57.017Z,26.93
2018-08-23T10:13:30.785Z,26.15
2018-08-23T10:18:10.519Z,22.85
2018-08-23T10:20:46.308Z,22.93
2018-08-23T10:23:20.271Z,23.73
2018-08-23T10:25:50.083Z,22.52
2018-08-23T10:28:25.196Z,22.27
2018-08-23T10:30:54.226Z,21.82
2018-08-23T10:33:22.755Z,21.70
2018-08-23T10:35:53.649Z,23.47
2018-08-23T10:38:23.659Z,22.37
2018-08-23T10:40:53.346Z,17.70
2018-08-23T10:43:27.176Z,20.43
2018-08-23T10:45:59.921Z,18.70
2018-08-23T10:48:28.440Z,20.60
2018-08-23T10:50:57.095Z,19.92
2018-08-23T10:53:25.707Z,20.95
2018-08-23T10:55:54.243Z,18.70
2018-08-23T10:58:22.928Z,18.90
2018-08-23T11:00:51.582Z,18.82
2018-08-23T11:03:20.144Z,16.25
2018-08-23T11:05:48.660Z,17.02
2018-08-23T11:08:20.200Z,15.60
2018-08-23T11:10:53.851Z,15.25
2018-08-23T11:13:53.070Z,14.60
2018-08-23T11:16:26.926Z,12.47
2018-08-23T11:19:00.791Z,11.57
2018-08-23T11:21:29.472Z,10.95
2018-08-23T11:23:58.253Z,12.68
2018-08-23T11:26:26.867Z,13.05
2018-08-23T11:28:55.627Z,13.13
2018-08-23T11:31:30.217Z,10.95
2018-08-23T11:33:58.850Z,9.20
2018-08-23T11:36:27.467Z,8.65
2018-08-23T11:38:56.151Z,9.88
2018-08-23T11:41:24.848Z,9.95
2018-08-23T11:43:53.485Z,8.95
2018-08-23T11:46:23.096Z,8.38
2018-08-23T11:48:51.940Z,8.33
2018-08-23T11:51:20.997Z,7.75
2018-08-23T11:53:49.736Z,9.13
2018-08-23T11:56:18.383Z,8.13
2018-08-23T11:58:46.975Z,7.85
2018-08-23T12:01:17.487Z,7.72
2018-08-23T12:03:46.409Z,6.72
2018-08-23T12:06:16.390Z,7.60
2018-08-23T12:08:45.097Z,6.58
2018-08-23T12:11:13.679Z,6.85
2018-08-23T12:13:46.793Z,6.15
2018-08-23T12:16:15.427Z,9.35
2018-08-23T12:18:44.083Z,6.12
2018-08-23T12:21:12.664Z,5.53
2018-08-23T12:23:41.246Z,5.05
2018-08-23T12:26:09.990Z,5.50
2018-08-23T12:28:43.567Z,5.60
2018-08-23T12:31:12.158Z,8.13
2018-08-23T12:33:40.684Z,5.83
2018-08-23T12:36:09.932Z,6.60
2018-08-23T12:38:43.708Z,7.35
2018-08-23T12:41:17.525Z,6.12
2018-08-23T12:43:47.791Z,6.10
2018-08-23T12:46:17.021Z,8.60
2018-08-23T12:48:46.311Z,9.08
2018-08-23T12:51:14.940Z,8.93
2018-08-23T12:53:43.588Z,7.17
2018-08-23T12:56:12.280Z,7.42
2018-08-23T12:58:41.902Z,7.58
2018-08-23T13:01:10.515Z,5.92
2018-08-23T13:03:39.101Z,5.83
2018-08-23T13:06:07.702Z,5.80
2018-08-23T13:08:36.338Z,6.28
2018-08-23T13:11:04.985Z,4.80
2018-08-23T13:13:33.436Z,5.30
2018-08-23T13:16:02.023Z,5.83
2018-08-23T13:18:30.567Z,5.20
2018-08-23T13:20:59.084Z,5.28
2018-08-23T13:23:27.806Z,6.03
2018-08-23T13:25:57.505Z,5.80
2018-08-23T13:28:27.347Z,5.95
2018-08-23T13:30:55.875Z,5.87
2018-08-23T13:33:25.652Z,7.22
2018-08-23T13:35:54.223Z,6.25
2018-08-23T13:38:22.714Z,6.40
2018-08-23T13:40:51.300Z,6.80
2018-08-23T13:43:19.880Z,6.60
2018-08-23T13:45:48.683Z,8.48
2018-08-23T13:48:17.624Z,7.15
2018-08-23T13:50:46.176Z,7.53
2018-08-23T13:53:14.754Z,7.25
2018-08-23T13:55:43.354Z,7.87
2018-08-23T13:58:11.877Z,6.72
2018-08-23T14:00:41.557Z,7.10
2018-08-23T14:03:10.947Z,8.03
2018-08-23T14:05:40.627Z,9.25
2018-08-23T14:08:09.605Z,6.65
2018-08-23T14:10:38.146Z,7.35
2018-08-23T14:13:06.753Z,6.62
2018-08-23T14:15:40.479Z,7.00
2018-08-23T14:18:09.123Z,6.25
2018-08-23T14:20:37.728Z,6.60
2018-08-23T14:23:06.205Z,7.45
2018-08-23T14:25:34.742Z,6.95
2018-08-23T14:28:03.234Z,7.97
2018-08-23T14:30:31.743Z,7.53
2018-08-23T14:33:00.372Z,8.08
2018-08-23T14:35:29.084Z,6.87
2018-08-23T14:37:57.681Z,8.08
2018-08-23T14:40:26.239Z,8.55
2018-08-23T14:42:54.755Z,8.03
2018-08-23T14:45:28.552Z,9.68
2018-08-23T14:48:02.484Z,7.80
2018-08-23T14:50:31.354Z,7.87
2018-08-23T14:52:59.879Z,8.08
2018-08-23T14:55:33.506Z,10.15
2018-08-23T14:58:02.155Z,8.60
2018-08-23T15:00:31.173Z,9.20
2018-08-23T15:02:59.937Z,8.20
2018-08-23T15:05:28.600Z,8.48
2018-08-23T15:07:57.172Z,9.63
2018-08-23T15:10:25.916Z,9.53
2018-08-23T15:12:54.525Z,9.87
2018-08-23T15:15:28.478Z,9.10
2018-08-23T15:17:57.215Z,9.50
2018-08-23T15:20:25.807Z,9.57
2018-08-23T15:22:54.586Z,10.17
2018-08-23T15:25:23.311Z,11.97
2018-08-23T15:27:51.875Z,11.90
2018-08-23T15:30:20.513Z,10.97
2018-08-23T15:32:49.182Z,10.40
2018-08-23T15:35:17.822Z,11.30
2018-08-23T15:37:46.428Z,12.33
2018-08-23T15:40:15.076Z,11.73
2018-08-23T15:42:43.649Z,12.90
2018-08-23T15:45:12.243Z,11.93
2018-08-23T15:47:40.963Z,11.10
2018-08-23T15:50:09.694Z,11.63
2018-08-23T15:52:38.383Z,12.27
2018-08-23T15:55:07.377Z,12.23
2018-08-23T15:57:38.058Z,11.97
2018-08-23T16:00:07.256Z,15.87
2018-08-23T16:02:35.817Z,11.50
2018-08-23T16:05:04.440Z,13.63
2018-08-23T16:07:33.033Z,14.83
2018-08-23T16:10:02.081Z,11.87
2018-08-23T16:12:30.733Z,12.77
2018-08-23T16:14:59.264Z,14.73
2018-08-23T16:17:32.886Z,18.40
2018-08-23T16:20:06.818Z,13.23
2018-08-23T16:22:35.431Z,13.17
2018-08-23T16:25:04.058Z,13.07
2018-08-23T16:27:32.659Z,13.30
2018-08-23T16:30:01.171Z,12.80
2018-08-23T16:32:34.127Z,14.03
2018-08-23T16:35:02.777Z,12.90
2018-08-23T16:37:32.342Z,15.47
2018-08-23T16:40:01.046Z,14.17
2018-08-23T16:42:30.235Z,14.13
2018-08-23T16:44:58.903Z,12.00
2018-08-23T16:47:27.730Z,12.83
2018-08-23T16:49:56.493Z,14.67
2018-08-23T16:52:25.200Z,13.33
2018-08-23T16:54:53.822Z,12.50
2018-08-23T16:57:22.428Z,11.67
2018-08-23T16:59:51.139Z,13.37
2018-08-23T17:02:19.886Z,11.13
2018-08-23T17:04:49.263Z,11.97
2018-08-23T17:07:18.351Z,13.63
2018-08-23T17:09:47.094Z,12.13
2018-08-23T17:12:16.102Z,11.60
2018-08-23T17:14:44.782Z,13.73
2018-08-23T17:17:18.717Z,11.27
2018-08-23T17:22:31.195Z,11.40
2018-08-23T17:25:00.146Z,10.30
2018-08-23T17:27:29.012Z,10.63
2018-08-23T17:29:57.807Z,7.83
2018-08-23T17:32:26.475Z,7.73
2018-08-23T17:34:55.751Z,7.50
2018-08-23T17:37:24.464Z,7.67
2018-08-23T17:39:53.530Z,8.77
2018-08-23T17:42:26.518Z,7.43
2018-08-23T17:44:55.154Z,7.13
2018-08-23T17:47:24.217Z,7.33
2018-08-23T17:49:53.341Z,8.03
2018-08-23T17:52:22.093Z,8.07
2018-08-23T17:54:51.014Z,7.90
2018-08-23T17:57:19.627Z,10.70
2018-08-23T17:59:48.433Z,7.70
2018-08-23T18:02:17.773Z,7.17
2018-08-23T18:04:46.638Z,7.30
2018-08-23T18:07:15.331Z,9.30
2018-08-23T18:09:44.035Z,8.97
2018-08-23T18:12:12.843Z,8.03
2018-08-23T18:14:41.590Z,8.77
2018-08-23T18:17:10.525Z,9.53
2018-08-23T18:19:39.353Z,8.30
2018-08-23T18:22:08.004Z,8.53
2018-08-23T18:24:36.733Z,9.30
2018-08-23T18:27:05.580Z,10.00
2018-08-23T18:29:34.324Z,8.77
2018-08-23T18:32:03.103Z,8.07
2018-08-23T18:34:31.956Z,9.80
2018-08-23T18:37:00.570Z,11.07
2018-08-23T18:39:29.159Z,8.40
2018-08-23T18:41:57.856Z,9.70
2018-08-23T18:44:26.456Z,7.87
2018-08-23T18:46:55.178Z,7.97
2018-08-23T18:49:23.794Z,7.63
2018-08-23T18:51:52.315Z,9.43
2018-08-23T18:54:21.017Z,7.87
2018-08-23T18:56:49.737Z,9.43
2018-08-23T18:59:18.484Z,7.27
2018-08-23T19:01:47.227Z,7.57
2018-08-23T19:04:16.031Z,7.73
2018-08-23T19:06:44.623Z,6.60
2018-08-23T19:09:14.314Z,6.60
2018-08-23T19:11:43.237Z,7.50
2018-08-23T19:14:11.946Z,6.20
2018-08-23T19:16:45.635Z,6.03
2018-08-23T19:19:14.340Z,8.60
2018-08-23T19:21:43.395Z,6.80
2018-08-23T19:24:12.384Z,10.37
2018-08-23T19:26:41.890Z,5.90
2018-08-23T19:29:10.947Z,6.83
2018-08-23T19:31:39.675Z,8.20
2018-08-23T19:34:08.446Z,5.47
2018-08-23T19:36:37.267Z,5.73
2018-08-23T19:39:12.582Z,7.23
2018-08-23T19:41:41.324Z,8.47
2018-08-23T19:44:09.923Z,5.80
2018-08-23T19:46:43.835Z,7.07
2018-08-23T19:49:17.698Z,6.60
2018-08-23T19:51:46.320Z,6.37
2018-08-23T19:54:15.025Z,6.20
2018-08-23T19:56:43.688Z,6.93
2018-08-23T19:59:12.442Z,5.90
2018-08-23T20:01:41.033Z,6.73
2018-08-23T20:04:09.660Z,11.77
2018-08-23T20:06:38.380Z,6.90
2018-08-23T20:09:08.785Z,7.07
2018-08-23T20:11:37.325Z,6.60
2018-08-23T20:14:05.936Z,6.90
2018-08-23T20:16:34.588Z,6.23
2018-08-23T20:19:03.993Z,6.23
2018-08-23T20:21:32.549Z,5.57
2018-08-23T20:24:01.218Z,5.93
2018-08-23T20:26:29.900Z,5.10
2018-08-23T20:28:59.293Z,4.77
2018-08-23T20:31:28.102Z,6.57
2018-08-23T20:33:58.359Z,5.50
2018-08-23T20:36:28.031Z,6.20
2018-08-23T20:38:57.106Z,3.80
2018-08-23T20:41:30.529Z,3.63
2018-08-23T20:43:59.183Z,4.70
2018-08-23T20:46:27.819Z,4.13
2018-08-23T20:48:56.322Z,4.97
2018-08-23T20:51:24.838Z,4.23
2018-08-23T20:53:53.472Z,6.10
2018-08-23T20:56:21.955Z,3.17
2018-08-23T20:58:50.542Z,3.07
2018-08-23T21:01:19.078Z,3.60
2018-08-23T21:03:47.761Z,3.20
2018-08-23T21:06:16.388Z,4.07
2018-08-23T21:08:45.023Z,4.07
2018-08-23T21:11:13.598Z,3.83
2018-08-23T21:13:42.191Z,3.30
2018-08-23T21:16:10.915Z,3.30
2018-08-23T21:18:39.553Z,3.63
2018-08-23T21:21:08.293Z,3.20
2018-08-23T21:23:36.940Z,4.20
2018-08-23T21:26:05.627Z,3.23
2018-08-23T21:28:34.305Z,3.70
2018-08-23T21:31:03.608Z,8.47
2018-08-23T21:33:32.159Z,2.80
2018-08-23T21:36:00.768Z,3.77
2018-08-23T21:38:29.410Z,4.57
2018-08-23T21:40:58.096Z,2.90
2018-08-23T21:43:26.654Z,4.17
2018-08-23T21:45:55.190Z,3.10
2018-08-23T21:48:23.844Z,4.20
2018-08-23T21:50:52.485Z,2.57
2018-08-23T21:53:21.059Z,2.50
2018-08-23T21:55:49.710Z,2.67
2018-08-23T21:58:18.293Z,6.30
2018-08-23T22:00:51.985Z,3.00
2018-08-23T22:03:20.579Z,3.50
2018-08-23T22:05:49.376Z,3.50
2018-08-23T22:08:17.969Z,2.40
2018-08-23T22:10:46.551Z,3.30
2018-08-23T22:13:15.154Z,2.63
2018-08-23T22:15:46.744Z,3.33
2018-08-23T22:18:15.859Z,2.63
2018-08-23T22:20:44.524Z,2.30
2018-08-23T22:23:13.543Z,2.33
2018-08-23T22:25:42.267Z,2.40
2018-08-23T22:28:11.306Z,2.23
2018-08-23T22:30:40.607Z,2.27
2018-08-23T22:33:10.300Z,2.03
2018-08-23T22:35:38.956Z,3.63
2018-08-23T22:38:07.922Z,2.10
2018-08-23T22:40:36.924Z,2.30
2018-08-23T22:43:05.578Z,3.03
2018-08-23T22:45:34.212Z,2.20
2018-08-23T22:48:02.864Z,1.63
2018-08-23T22:50:31.594Z,2.00
2018-08-23T22:53:00.158Z,1.80
2018-08-23T22:55:28.827Z,1.87
2018-08-23T22:57:57.652Z,1.70
2018-08-23T23:00:42.632Z,1.90
2018-08-23T23:03:16.537Z,1.97
2018-08-23T23:05:45.303Z,2.27
2018-08-23T23:08:13.909Z,1.93
2018-08-23T23:10:42.706Z,1.80
2018-08-23T23:13:11.356Z,1.83
2018-08-23T23:15:40.016Z,3.10
2018-08-23T23:18:08.626Z,1.90
2018-08-23T23:20:37.283Z,2.10
2018-08-23T23:23:05.923Z,1.83
2018-08-23T23:25:34.558Z,1.60
2018-08-23T23:28:03.125Z,1.80
2018-08-23T23:30:31.711Z,1.90
2018-08-23T23:33:00.293Z,3.40
2018-08-23T23:35:28.880Z,1.63
2018-08-23T23:37:57.446Z,1.73
2018-08-23T23:40:26.010Z,2.10
2018-08-23T23:42:54.673Z,2.90
2018-08-23T23:45:23.328Z,1.77
2018-08-23T23:47:51.947Z,2.43
2018-08-23T23:50:20.669Z,2.33
2018-08-23T23:52:49.269Z,1.73
2018-08-23T23:55:17.911Z,2.00
2018-08-23T23:57:46.519Z,1.83
